Time;durP1;ratioP1;P1;durP2;ratioP2;P2;SDS_P1;SDS_P2;PMS_P1;PMS_P2;Temp;Humidity;BMP_temperature;BMP_pressure;BME280_temperature;BME280_humidity;BME280_pressure;Samples;Min_cycle;Max_cycle;Signal;HPM_P1;HPM_P2
2022/03/31 00:00:37;;;;;;;27.73;8.90;;;;;;;39.26;44.44;100659.47;4767520;30;20432;-73
2022/03/31 00:03:05;;;;;;;36.43;13.63;;;;;;;39.40;44.20;100674.47;4767473;30;21028;-73
2022/03/31 00:05:32;;;;;;;39.63;10.60;;;;;;;39.37;44.46;100663.47;4768640;30;20542;-74
2022/03/31 00:08:00;;;;;;;23.50;8.40;;;;;;;39.45;43.93;100668.06;4767591;30;20432;-73
2022/03/31 00:10:52;;;;;;;17.70;9.60;;;;;;;39.38;44.44;100660.41;4767401;30;20602;-74
2022/03/31 00:13:21;;;;;;;30.43;10.20;;;;;;;39.19;44.81;100649.91;4769443;29;20552;-72
2022/03/31 00:15:47;;;;;;;19.97;11.50;;;;;;;39.17;44.72;100645.94;4770141;30;21005;-72
2022/03/31 00:18:15;;;;;;;17.20;10.90;;;;;;;39.21;44.75;100642.22;4772243;30;20924;-72
2022/03/31 00:20:41;;;;;;;25.90;11.80;;;;;;;38.99;45.19;100641.59;4770855;30;20436;-74
2022/03/31 00:23:07;;;;;;;19.73;9.67;;;;;;;39.02;45.32;100640.94;4771905;30;20456;-74
2022/03/31 00:25:34;;;;;;;21.57;9.77;;;;;;;38.97;45.76;100633.75;4770802;30;20438;-73
2022/03/31 00:28:03;;;;;;;23.57;10.70;;;;;;;38.81;46.03;100624.50;4770559;30;20460;-74
2022/03/31 00:30:29;;;;;;;25.37;10.33;;;;;;;38.91;45.90;100616.03;4770700;30;20891;-74
2022/03/31 00:32:57;;;;;;;29.60;12.43;;;;;;;38.95;45.42;100603.44;4770500;30;20475;-74
2022/03/31 00:35:23;;;;;;;26.50;10.37;;;;;;;38.60;45.90;100594.44;4770543;30;20470;-73
2022/03/31 00:37:49;;;;;;;21.63;11.67;;;;;;;38.57;46.24;100593.19;4770406;30;20535;-74
2022/03/31 00:40:18;;;;;;;26.43;11.30;;;;;;;38.70;46.21;100592.25;4770414;30;20443;-72
2022/03/31 00:42:49;;;;;;;30.07;11.13;;;;;;;38.54;46.19;100577.53;4770531;30;20432;-74
2022/03/31 00:45:20;;;;;;;26.80;10.07;;;;;;;38.58;46.34;100580.44;4770250;30;20459;-73
2022/03/31 00:47:47;;;;;;;30.47;11.77;;;;;;;38.37;46.85;100581.03;4770390;30;20817;-74
2022/03/31 00:50:14;;;;;;;26.13;9.37;;;;;;;38.57;46.40;100571.50;4770260;30;20543;-75
2022/03/31 00:52:41;;;;;;;29.97;11.80;;;;;;;38.62;46.30;100570.56;4770283;30;20476;-73
2022/03/31 00:55:09;;;;;;;25.23;12.80;;;;;;;38.61;46.15;100564.34;4770151;30;20429;-72
2022/03/31 00:57:36;;;;;;;27.50;12.23;;;;;;;38.69;46.05;100565.47;4770181;30;20854;-72
2022/03/31 01:00:07;;;;;;;38.77;13.40;;;;;;;38.40;46.62;100557.94;4770131;30;20428;-72
2022/03/31 01:02:35;;;;;;;30.10;11.20;;;;;;;38.40;46.70;100566.06;4769849;30;20511;-74
2022/03/31 01:05:03;;;;;;;27.63;12.57;;;;;;;38.61;46.39;100561.63;4770014;30;20819;-72
2022/03/31 01:07:29;;;;;;;23.73;9.60;;;;;;;38.87;45.33;100566.28;4770085;30;20485;-72
2022/03/31 01:09:57;;;;;;;27.87;12.80;;;;;;;38.86;45.50;100570.13;4769827;30;20454;-72
2022/03/31 01:12:23;;;;;;;28.10;12.97;;;;;;;38.75;45.71;100575.06;4771210;30;20960;-73
2022/03/31 01:15:09;;;;;;;29.90;10.50;;;;;;;38.73;45.57;100576.47;4769698;30;20475;-73
2022/03/31 01:17:38;;;;;;;27.87;11.07;;;;;;;38.69;45.71;100573.59;4769720;30;20440;-72
2022/03/31 01:20:08;;;;;;;26.37;10.13;;;;;;;38.61;45.67;100567.06;4769828;30;20436;-72
2022/03/31 01:22:34;;;;;;;27.60;11.30;;;;;;;38.61;45.98;100561.63;4770925;30;20495;-73
2022/03/31 01:25:01;;;;;;;25.37;12.60;;;;;;;38.54;46.05;100563.19;4769544;30;20442;-72
2022/03/31 01:27:27;;;;;;;44.00;15.67;;;;;;;38.63;46.25;100561.31;4768947;30;20519;-74
2022/03/31 01:29:53;;;;;;;22.73;11.03;;;;;;;38.81;45.83;100559.44;4769746;30;20874;-72
2022/03/31 01:32:20;;;;;;;38.07;12.90;;;;;;;38.91;45.72;100549.03;4770835;30;20493;-72
2022/03/31 01:34:46;;;;;;;29.70;10.50;;;;;;;38.74;45.87;100548.28;4770925;30;20905;-72
2022/03/31 01:37:13;;;;;;;30.87;10.23;;;;;;;38.50;46.51;100557.63;4770800;30;20909;-75
2022/03/31 01:39:40;;;;;;;20.47;8.27;;;;;;;38.66;45.70;100545.19;4769591;30;20439;-72
2022/03/31 01:42:07;;;;;;;33.87;11.20;;;;;;;38.65;45.35;100538.19;4769514;30;20432;-72
2022/03/31 01:44:34;;;;;;;25.30;10.70;;;;;;;38.77;45.50;100544.91;4754723;30;20424;-71
2022/03/31 01:47:00;;;;;;;27.23;13.47;;;;;;;38.60;46.05;100534.81;4769514;30;20439;-72
2022/03/31 01:49:26;;;;;;;23.17;10.47;;;;;;;38.61;45.75;100533.69;4769316;30;20818;-72
2022/03/31 01:51:52;;;;;;;30.10;14.27;;;;;;;38.85;45.20;100533.25;4770553;30;20980;-74
2022/03/31 01:54:18;;;;;;;23.53;12.43;;;;;;;38.86;45.11;100529.44;4769639;30;20883;-74
2022/03/31 01:56:44;;;;;;;26.13;10.47;;;;;;;38.78;44.84;100525.59;4769269;30;20435;-73
2022/03/31 01:59:11;;;;;;;55.27;13.97;;;;;;;38.65;45.60;100530.03;4769434;30;20506;-72
2022/03/31 02:01:37;;;;;;;31.83;11.90;;;;;;;38.57;45.71;100520.00;4769123;30;20987;-74
2022/03/31 02:04:04;;;;;;;38.23;13.83;;;;;;;38.56;45.87;100523.84;4754708;30;20443;-74
2022/03/31 02:06:30;;;;;;;33.57;15.30;;;;;;;38.57;45.62;100516.50;4769162;30;20436;-72
2022/03/31 02:08:56;;;;;;;26.90;13.37;;;;;;;38.53;45.64;100515.53;4769240;30;20443;-72
2022/03/31 02:11:23;;;;;;;38.70;11.90;;;;;;;38.57;45.99;100522.72;4754341;30;20424;-75
2022/03/31 02:13:49;;;;;;;20.73;13.00;;;;;;;38.69;45.30;100512.03;4769962;30;20908;-74
2022/03/31 02:16:15;;;;;;;26.57;11.13;;;;;;;38.69;45.53;100512.03;4768899;30;20440;-74
2022/03/31 02:18:41;;;;;;;39.53;11.03;;;;;;;38.51;45.98;100510.44;4769233;30;20436;-72
2022/03/31 02:21:07;;;;;;;22.23;10.37;;;;;;;38.72;45.45;100515.25;4768850;30;20552;-74
2022/03/31 02:23:33;;;;;;;26.20;11.10;;;;;;;38.63;46.10;100520.66;4768707;30;21032;-75
2022/03/31 02:25:59;;;;;;;25.20;12.10;;;;;;;38.56;46.05;100514.91;4769945;30;21003;-72
2022/03/31 02:28:25;;;;;;;34.13;11.67;;;;;;;38.49;45.98;100517.28;4770014;30;20412;-72
2022/03/31 02:30:51;;;;;;;29.33;12.80;;;;;;;38.50;46.03;100518.91;4768552;30;20464;-74
2022/03/31 02:33:18;;;;;;;27.70;10.83;;;;;;;38.50;45.98;100519.69;4768456;30;20819;-74
2022/03/31 02:35:44;;;;;;;24.70;12.80;;;;;;;38.30;46.42;100517.56;4768673;30;20424;-72
2022/03/31 02:38:10;;;;;;;32.73;13.20;;;;;;;38.45;46.44;100527.97;4753328;30;20483;-72
2022/03/31 02:40:36;;;;;;;32.47;10.63;;;;;;;38.51;46.41;100521.28;4768592;30;20436;-75
2022/03/31 02:43:02;;;;;;;28.97;11.10;;;;;;;38.40;46.32;100520.78;4753599;30;20452;-75
2022/03/31 02:45:28;;;;;;;23.20;11.30;;;;;;;38.44;45.88;100523.66;4768451;30;20994;-72
2022/03/31 02:47:55;;;;;;;25.37;12.93;;;;;;;38.38;45.71;100530.34;4753595;30;20464;-72
2022/03/31 02:50:21;;;;;;;24.43;10.87;;;;;;;38.49;45.74;100525.41;4768421;30;20454;-72
2022/03/31 02:55:32;;;;;;;25.03;10.47;;;;;;;38.27;46.39;100524.44;4769763;30;20907;-72
2022/03/31 02:58:03;;;;;;;28.90;13.03;;;;;;;38.45;45.91;100533.38;4768166;30;20456;-71
2022/03/31 03:00:34;;;;;;;39.53;11.47;;;;;;;38.16;46.54;100526.63;4739584;30;20432;-72
2022/03/31 03:03:03;;;;;;;26.93;12.00;;;;;;;38.33;46.22;100525.88;4753448;30;20488;-73
2022/03/31 03:05:30;;;;;;;27.47;12.00;;;;;;;38.46;46.45;100526.06;4753578;30;20515;-73
2022/03/31 03:07:56;;;;;;;29.30;13.20;;;;;;;38.30;46.83;100520.28;4767938;30;20460;-74
2022/03/31 03:10:22;;;;;;;25.60;10.67;;;;;;;38.35;46.40;100522.84;4769397;30;20405;-73
2022/03/31 03:12:51;;;;;;;30.50;10.17;;;;;;;38.40;46.69;100528.91;4769211;30;20456;-73
2022/03/31 03:15:18;;;;;;;37.30;12.87;;;;;;;38.17;46.63;100520.06;4768073;30;20556;-74
2022/03/31 03:17:47;;;;;;;29.03;15.60;;;;;;;38.11;47.27;100518.63;4769333;30;20412;-72
2022/03/31 03:20:15;;;;;;;23.77;11.00;;;;;;;38.19;46.86;100527.91;4738888;30;20462;-72
2022/03/31 03:22:47;;;;;;;21.83;12.00;;;;;;;38.44;46.28;100529.88;4768066;30;20476;-72
2022/03/31 03:25:15;;;;;;;28.83;12.20;;;;;;;38.63;45.78;100532.28;4767889;30;20432;-72
2022/03/31 03:27:42;;;;;;;25.07;11.80;;;;;;;38.52;46.33;100535.63;4753383;30;20436;-75
2022/03/31 03:30:09;;;;;;;32.57;12.53;;;;;;;38.50;46.71;100525.09;4753124;30;20790;-73
2022/03/31 03:32:36;;;;;;;34.57;15.03;;;;;;;38.50;46.57;100532.44;4767869;30;20541;-72
2022/03/31 03:35:08;;;;;;;31.00;11.93;;;;;;;38.59;45.82;100531.31;4767786;30;20913;-74
2022/03/31 03:37:35;;;;;;;25.13;11.53;;;;;;;38.54;46.00;100531.47;4767801;30;20436;-74
2022/03/31 03:40:03;;;;;;;37.90;16.17;;;;;;;38.68;45.57;100528.63;4767816;30;20777;-74
2022/03/31 03:42:29;;;;;;;34.63;12.03;;;;;;;38.78;45.65;100527.53;4767606;30;20433;-74
2022/03/31 03:44:56;;;;;;;28.53;13.80;;;;;;;38.71;45.40;100533.41;4769033;30;20447;-74
2022/03/31 03:47:22;;;;;;;37.27;13.67;;;;;;;38.66;45.69;100522.69;4767786;30;20435;-72
2022/03/31 03:49:49;;;;;;;32.40;11.10;;;;;;;38.64;45.66;100524.94;4769228;30;20432;-71
2022/03/31 03:52:15;;;;;;;27.03;12.93;;;;;;;38.54;45.26;100523.34;4771349;30;20475;-72
2022/03/31 03:54:42;;;;;;;27.70;11.03;;;;;;;38.48;45.58;100518.41;4772569;30;20418;-72
2022/03/31 03:57:08;;;;;;;26.07;10.80;;;;;;;38.55;45.30;100524.97;4771305;30;20457;-74
2022/03/31 03:59:35;;;;;;;32.07;13.60;;;;;;;38.55;45.70;100518.72;4771302;30;20425;-72
2022/03/31 04:02:02;;;;;;;27.90;11.47;;;;;;;38.52;46.35;100514.75;4771038;30;20549;-74
2022/03/31 04:04:32;;;;;;;37.03;14.43;;;;;;;38.65;45.82;100516.50;4771202;30;20435;-74
2022/03/31 04:06:59;;;;;;;27.80;12.83;;;;;;;38.55;45.47;100511.41;4771099;30;21030;-72
2022/03/31 04:09:25;;;;;;;22.60;11.47;;;;;;;38.38;46.02;100514.09;4771128;30;20951;-71
2022/03/31 04:11:52;;;;;;;38.37;11.50;;;;;;;38.53;46.19;100516.31;4770969;30;20471;-71
2022/03/31 04:14:20;;;;;;;30.43;14.30;;;;;;;38.68;45.56;100509.66;4771037;30;21024;-74
2022/03/31 04:16:47;;;;;;;35.27;13.80;;;;;;;38.56;46.11;100515.72;4771039;30;20948;-74
2022/03/31 04:19:13;;;;;;;36.73;14.90;;;;;;;38.50;46.22;100516.97;4770901;30;20424;-73
2022/03/31 04:21:39;;;;;;;29.13;13.47;;;;;;;38.68;45.76;100524.00;4770880;30;20524;-72
2022/03/31 04:24:05;;;;;;;27.30;11.17;;;;;;;38.65;46.12;100513.78;4770774;30;20432;-73
2022/03/31 04:26:32;;;;;;;28.57;12.60;;;;;;;38.75;45.71;100525.47;4771037;30;20523;-71
2022/03/31 04:29:01;;;;;;;39.13;13.60;;;;;;;38.75;45.89;100526.25;4770589;30;20979;-74
2022/03/31 04:31:28;;;;;;;25.33;11.60;;;;;;;38.82;45.98;100526.56;4770585;30;20571;-74
2022/03/31 04:33:54;;;;;;;22.00;12.60;;;;;;;38.55;46.40;100533.09;4772034;30;20462;-74
2022/03/31 04:36:20;;;;;;;26.20;13.67;;;;;;;38.66;46.18;100525.41;4770513;30;20460;-74
2022/03/31 04:38:47;;;;;;;28.70;11.67;;;;;;;38.85;45.80;100533.25;4770883;30;20447;-73
2022/03/31 04:41:14;;;;;;;33.17;12.30;;;;;;;38.92;45.76;100531.66;4770511;30;20448;-72
2022/03/31 04:43:40;;;;;;;29.53;13.03;;;;;;;39.03;45.48;100528.59;4770604;30;20404;-71
2022/03/31 04:46:06;;;;;;;31.50;11.57;;;;;;;38.80;45.23;100528.81;4770396;30;20548;-71
2022/03/31 04:48:34;;;;;;;20.07;11.33;;;;;;;38.82;45.23;100523.84;4771655;30;20420;-73
2022/03/31 04:51:00;;;;;;;33.93;11.10;;;;;;;38.79;45.47;100529.91;4770410;30;20821;-72
2022/03/31 04:53:26;;;;;;;27.27;12.40;;;;;;;38.47;46.07;100525.72;4770363;30;20475;-73
2022/03/31 04:55:52;;;;;;;26.50;12.93;;;;;;;38.56;45.94;100526.53;4770279;30;20482;-72
2022/03/31 04:58:19;;;;;;;23.50;11.27;;;;;;;38.58;45.59;100529.72;4771535;30;20416;-72
2022/03/31 05:00:45;;;;;;;34.73;14.40;;;;;;;38.36;46.66;100522.53;4769922;30;20432;-72
2022/03/31 05:03:11;;;;;;;40.30;12.00;;;;;;;38.41;45.70;100530.50;4770051;30;20490;-72
2022/03/31 05:05:37;;;;;;;30.70;11.23;;;;;;;38.40;46.05;100537.03;4770400;30;20431;-71
2022/03/31 05:08:03;;;;;;;42.97;13.03;;;;;;;38.43;46.19;100533.72;4769940;30;20468;-73
2022/03/31 05:10:29;;;;;;;30.63;13.53;;;;;;;38.43;46.01;100538.34;4770114;30;20489;-74
2022/03/31 05:12:55;;;;;;;27.90;11.83;;;;;;;38.45;45.89;100546.94;4769756;30;20903;-74
2022/03/31 05:15:21;;;;;;;39.30;13.43;;;;;;;38.44;46.07;100545.34;4769989;30;21002;-73
2022/03/31 05:17:47;;;;;;;22.90;10.33;;;;;;;38.53;45.97;100548.84;4769881;30;20457;-73
2022/03/31 05:20:14;;;;;;;20.87;11.80;;;;;;;38.70;45.73;100554.28;4769888;30;20436;-72
2022/03/31 05:22:41;;;;;;;25.00;15.27;;;;;;;38.69;45.75;100549.97;4769732;30;20949;-71
2022/03/31 05:25:08;;;;;;;42.53;12.97;;;;;;;38.87;45.30;100558.94;4769710;30;20436;-72
2022/03/31 05:27:41;;;;;;;34.40;13.13;;;;;;;38.94;45.10;100553.03;4769647;30;20456;-72
2022/03/31 05:30:07;;;;;;;19.30;11.17;;;;;;;38.82;44.88;100550.97;4769768;30;20430;-72
2022/03/31 05:32:33;;;;;;;20.40;10.90;;;;;;;38.93;44.37;100556.88;4769592;30;20567;-72
2022/03/31 05:34:59;;;;;;;25.17;14.20;;;;;;;38.90;44.60;100558.28;4769500;30;20533;-71
2022/03/31 05:37:25;;;;;;;33.50;12.00;;;;;;;38.93;44.71;100552.25;4769869;30;20440;-71
2022/03/31 05:39:52;;;;;;;26.10;12.93;;;;;;;38.86;44.76;100562.78;4769667;30;20443;-72
2022/03/31 05:42:18;;;;;;;21.70;11.80;;;;;;;38.62;45.60;100570.56;4769485;30;20429;-73
2022/03/31 05:44:44;;;;;;;31.73;14.87;;;;;;;38.73;45.50;100571.84;4769019;30;20436;-75
2022/03/31 05:47:10;;;;;;;31.27;14.10;;;;;;;38.74;45.36;100573.47;4769306;30;20416;-72
2022/03/31 05:49:36;;;;;;;34.40;16.50;;;;;;;38.92;45.24;100571.56;4770592;30;20417;-72
2022/03/31 05:52:02;;;;;;;28.30;12.90;;;;;;;38.90;45.48;100571.84;4768538;30;20479;-72
2022/03/31 05:54:30;;;;;;;26.70;13.33;;;;;;;38.69;46.03;100579.81;4769311;30;20949;-72
2022/03/31 05:56:57;;;;;;;31.57;12.87;;;;;;;38.89;45.25;100577.59;4755825;30;20445;-72
2022/03/31 05:59:23;;;;;;;31.70;14.73;;;;;;;38.58;45.74;100583.94;4736835;30;20440;-74
2022/03/31 06:01:49;;;;;;;29.77;14.23;;;;;;;38.71;45.99;100593.03;4757374;30;20452;-74
2022/03/31 06:04:20;;;;;;;38.43;14.53;;;;;;;38.58;46.44;100597.50;4769211;30;20462;-73
2022/03/31 06:06:48;;;;;;;28.27;11.93;;;;;;;38.67;45.64;100603.72;4765434;30;21023;-73
2022/03/31 06:09:15;;;;;;;29.80;14.83;;;;;;;38.46;46.24;100612.78;4767815;30;20506;-75
2022/03/31 06:11:42;;;;;;;31.27;13.47;;;;;;;38.44;46.45;100611.19;4767867;30;20515;-72
2022/03/31 06:14:09;;;;;;;24.63;11.17;;;;;;;38.61;46.07;100609.59;4767223;30;20566;-73
2022/03/31 06:16:35;;;;;;;29.60;13.50;;;;;;;38.46;46.13;100619.00;4767340;30;20412;-72
2022/03/31 06:19:02;;;;;;;25.23;12.60;;;;;;;38.54;45.92;100625.53;4765508;30;20440;-71
2022/03/31 06:21:28;;;;;;;41.13;14.83;;;;;;;38.60;46.22;100629.69;4768437;30;20483;-72
2022/03/31 06:23:54;;;;;;;29.07;13.93;;;;;;;38.58;46.11;100623.78;4768936;30;20435;-72
2022/03/31 06:26:20;;;;;;;33.93;15.83;;;;;;;38.48;46.19;100632.22;4768736;30;20462;-75
2022/03/31 06:28:47;;;;;;;24.77;11.43;;;;;;;38.42;46.31;100624.22;4768938;30;20415;-81
2022/03/31 06:31:13;;;;;;;30.43;13.87;;;;;;;38.65;45.87;100627.63;4768423;30;20850;-74
2022/03/31 06:33:39;;;;;;;48.90;18.90;;;;;;;38.80;46.16;100622.91;4768601;30;20475;-73
2022/03/31 06:36:06;;;;;;;43.37;15.20;;;;;;;38.79;45.84;100637.56;4768696;30;20523;-74
2022/03/31 06:38:32;;;;;;;39.33;14.60;;;;;;;38.99;45.02;100645.09;4768613;30;20975;-72
2022/03/31 06:41:07;;;;;;;31.50;14.20;;;;;;;39.11;45.10;100647.16;4767516;30;20515;-73
2022/03/31 06:43:34;;;;;;;40.90;16.20;;;;;;;39.06;45.09;100648.13;4769649;30;20495;-72
2022/03/31 06:46:01;;;;;;;32.53;14.53;;;;;;;38.93;45.10;100665.34;4769043;30;20428;-71
2022/03/31 06:48:29;;;;;;;26.43;13.10;;;;;;;38.90;45.31;100664.06;4766506;30;20437;-74
2022/03/31 06:50:57;;;;;;;39.53;14.10;;;;;;;38.79;45.95;100670.09;4767164;30;20509;-74
2022/03/31 06:53:23;;;;;;;35.37;13.57;;;;;;;39.05;45.37;100673.66;4766195;30;21000;-73
2022/03/31 06:55:50;;;;;;;35.73;14.60;;;;;;;39.00;45.59;100675.72;4765438;30;20440;-72
2022/03/31 06:58:16;;;;;;;31.30;17.17;;;;;;;39.01;45.83;100680.81;4766048;30;20456;-74
2022/03/31 07:00:43;;;;;;;31.13;16.47;;;;;;;39.08;45.40;100688.47;4767730;30;20432;-74
2022/03/31 07:03:09;;;;;;;21.60;12.10;;;;;;;39.13;44.88;100683.69;4767752;30;20472;-74
2022/03/31 07:05:38;;;;;;;20.77;11.90;;;;;;;39.15;44.88;100694.22;4759363;30;20493;-74
2022/03/31 07:08:05;;;;;;;31.87;13.60;;;;;;;39.21;44.85;100699.22;4767120;30;20432;-73
2022/03/31 07:10:31;;;;;;;25.40;14.87;;;;;;;39.27;44.66;100704.47;4754462;30;20510;-72
2022/03/31 07:12:57;;;;;;;29.37;13.70;;;;;;;39.24;44.77;100711.34;4750175;30;20569;-75
2022/03/31 07:15:24;;;;;;;31.93;13.00;;;;;;;39.27;44.48;100715.34;4750478;30;20439;-73
2022/03/31 07:17:50;;;;;;;45.30;15.27;;;;;;;39.39;44.48;100720.91;4754409;30;20460;-73
2022/03/31 07:20:16;;;;;;;30.30;13.60;;;;;;;39.34;44.76;100727.28;4767753;30;20943;-75
2022/03/31 07:22:50;;;;;;;35.63;15.63;;;;;;;39.30;44.35;100723.66;4768102;30;20435;-73
2022/03/31 07:25:17;;;;;;;34.70;15.50;;;;;;;39.38;44.26;100730.19;4767392;30;20828;-74
2022/03/31 07:27:47;;;;;;;33.33;16.07;;;;;;;39.33;44.68;100727.63;4769046;30;20448;-75
2022/03/31 07:30:16;;;;;;;40.90;14.37;;;;;;;39.30;44.36;100731.00;4767550;30;20502;-73
2022/03/31 07:32:54;;;;;;;22.03;12.63;;;;;;;39.12;44.83;100738.28;4761856;30;21023;-73
2022/03/31 07:35:22;;;;;;;27.03;12.83;;;;;;;39.21;44.67;100737.19;4765736;30;20939;-72
2022/03/31 07:37:51;;;;;;;26.67;12.43;;;;;;;39.14;45.23;100744.97;4767879;30;20519;-73
2022/03/31 07:40:18;;;;;;;27.90;14.10;;;;;;;39.22;45.04;100746.91;4764136;30;20432;-72
2022/03/31 07:42:45;;;;;;;26.40;14.50;;;;;;;39.32;45.03;100739.59;4759031;30;20435;-72
2022/03/31 07:45:14;;;;;;;25.87;13.47;;;;;;;39.28;44.88;100750.28;4766027;30;20455;-72
2022/03/31 07:47:41;;;;;;;37.87;15.30;;;;;;;39.12;45.01;100757.28;4767334;30;20531;-73
2022/03/31 07:50:10;;;;;;;27.80;14.10;;;;;;;38.94;45.33;100765.38;4767297;30;20432;-74
2022/03/31 07:52:41;;;;;;;40.87;12.33;;;;;;;39.05;44.78;100771.31;4766923;30;20479;-74
2022/03/31 07:55:09;;;;;;;22.97;11.60;;;;;;;38.76;45.24;100769.16;4766898;30;20464;-73
2022/03/31 07:57:36;;;;;;;28.90;13.70;;;;;;;38.85;45.23;100771.88;4767546;30;20586;-71
2022/03/31 08:00:05;;;;;;;37.97;11.93;;;;;;;38.93;44.93;100769.19;4767659;30;20506;-73
2022/03/31 08:02:31;;;;;;;38.30;12.87;;;;;;;39.17;44.93;100774.22;4768524;30;20464;-74
2022/03/31 08:04:57;;;;;;;36.17;14.93;;;;;;;39.13;45.15;100786.00;4767609;30;20515;-82
2022/03/31 08:07:23;;;;;;;25.57;12.90;;;;;;;39.23;45.02;100788.44;4767499;30;20463;-75
2022/03/31 08:09:49;;;;;;;26.50;11.93;;;;;;;39.15;44.76;100794.59;4768875;30;20443;-74
2022/03/31 08:12:15;;;;;;;33.13;11.50;;;;;;;39.25;44.57;100797.06;4767448;30;20460;-74
2022/03/31 08:14:41;;;;;;;35.50;12.83;;;;;;;39.36;44.55;100789.41;4767439;30;20436;-75
2022/03/31 08:17:08;;;;;;;23.00;12.97;;;;;;;39.27;44.55;100786.69;4767433;30;20428;-76
2022/03/31 08:19:34;;;;;;;46.30;13.90;;;;;;;39.29;44.29;100789.91;4767182;30;20512;-73
2022/03/31 08:22:01;;;;;;;30.67;12.27;;;;;;;39.37;43.94;100797.25;4768163;30;20456;-71
2022/03/31 08:24:28;;;;;;;36.17;12.00;;;;;;;39.40;43.86;100806.66;4767331;30;20460;-72
2022/03/31 08:26:54;;;;;;;33.13;11.73;;;;;;;39.48;43.75;100803.97;4752854;30;20933;-72
2022/03/31 08:29:21;;;;;;;24.63;13.93;;;;;;;39.49;43.48;100802.84;4767419;30;20624;-73
2022/03/31 08:31:47;;;;;;;41.70;17.40;;;;;;;39.47;43.74;100810.50;4768644;30;20469;-74
2022/03/31 08:34:13;;;;;;;42.50;15.13;;;;;;;39.54;43.63;100804.59;4768687;30;20411;-74
2022/03/31 08:36:39;;;;;;;33.17;14.20;;;;;;;39.66;43.43;100817.56;4770050;30;20422;-73
2022/03/31 08:39:06;;;;;;;49.87;15.60;;;;;;;39.74;43.45;100817.56;4770054;30;20775;-72
2022/03/31 08:41:33;;;;;;;36.43;15.20;;;;;;;39.79;43.37;100821.25;4769694;30;20523;-71
2022/03/31 08:43:59;;;;;;;35.00;14.57;;;;;;;39.67;43.49;100817.25;4770553;30;20435;-73
2022/03/31 08:46:34;;;;;;;35.97;14.80;;;;;;;39.61;43.76;100815.81;4771791;30;20503;-74
2022/03/31 08:49:01;;;;;;;31.17;11.47;;;;;;;39.72;43.42;100811.66;4770429;30;20424;-76
2022/03/31 08:51:29;;;;;;;50.00;13.30;;;;;;;39.60;43.36;100808.78;4764783;30;20485;-77
2022/03/31 08:53:55;;;;;;;39.43;13.57;;;;;;;39.57;43.96;100806.66;4769961;30;20561;-73
2022/03/31 08:56:22;;;;;;;30.23;12.50;;;;;;;39.60;43.57;100810.69;4770350;30;20432;-73
2022/03/31 08:58:48;;;;;;;40.07;14.70;;;;;;;39.58;43.42;100800.09;4770217;30;20544;-71
2022/03/31 09:01:15;;;;;;;25.07;11.50;;;;;;;39.78;43.21;100804.16;4770884;30;20451;-72
2022/03/31 09:03:42;;;;;;;36.17;12.27;;;;;;;39.67;43.79;100803.66;4768219;30;20910;-71
2022/03/31 09:06:19;;;;;;;35.63;12.83;;;;;;;39.77;43.38;100813.41;4768288;30;20435;-71
2022/03/31 09:08:54;;;;;;;36.40;15.70;;;;;;;39.90;43.16;100815.16;4769626;30;20420;-72
2022/03/31 09:11:32;;;;;;;29.90;11.70;;;;;;;39.95;43.21;100808.75;4768354;30;20986;-71
2022/03/31 09:14:01;;;;;;;30.43;15.73;;;;;;;39.88;43.25;100809.25;4768288;30;20478;-71
2022/03/31 09:16:34;;;;;;;25.70;10.63;;;;;;;39.80;43.29;100812.78;4768483;30;20440;-72
2022/03/31 09:19:14;;;;;;;21.97;12.30;;;;;;;39.73;43.37;100815.19;4769953;30;20432;-70
2022/03/31 09:21:58;;;;;;;23.30;11.60;;;;;;;39.67;43.55;100816.44;4771146;30;20444;-70
2022/03/31 09:24:27;;;;;;;31.13;11.23;;;;;;;39.49;44.18;100813.69;4771124;30;20423;-70
2022/03/31 09:26:54;;;;;;;26.90;13.10;;;;;;;39.54;43.86;100811.94;4769845;30;20539;-71
2022/03/31 09:29:24;;;;;;;25.60;11.13;;;;;;;39.61;44.00;100812.28;4769735;30;20463;-70
2022/03/31 09:31:54;;;;;;;35.00;11.07;;;;;;;39.66;44.02;100815.66;4754986;30;20834;-72
2022/03/31 09:34:21;;;;;;;31.70;11.70;;;;;;;39.74;43.65;100820.28;4769641;30;20460;-73
2022/03/31 09:36:52;;;;;;;21.63;11.60;;;;;;;39.69;43.62;100817.72;4769553;30;20470;-72
2022/03/31 09:39:21;;;;;;;35.27;13.97;;;;;;;39.75;43.24;100816.44;4769625;30;20436;-71
2022/03/31 09:41:50;;;;;;;23.97;11.57;;;;;;;39.72;43.79;100814.38;4769557;30;20439;-71
2022/03/31 09:44:25;;;;;;;32.60;13.90;;;;;;;40.00;43.23;100805.88;4769050;30;20534;-72
2022/03/31 09:46:52;;;;;;;24.47;11.37;;;;;;;39.99;43.12;100815.94;4768537;30;20829;-71
2022/03/31 09:49:26;;;;;;;32.90;13.50;;;;;;;39.96;42.98;100822.03;4770318;30;20431;-73
2022/03/31 09:51:55;;;;;;;30.20;12.43;;;;;;;39.97;43.33;100818.19;4769202;30;20483;-71
2022/03/31 09:54:25;;;;;;;26.57;11.87;;;;;;;40.19;43.14;100819.94;4769406;30;20429;-71
2022/03/31 09:56:52;;;;;;;24.63;10.60;;;;;;;39.95;43.33;100814.97;4770550;30;20771;-70
2022/03/31 09:59:19;;;;;;;22.93;11.00;;;;;;;40.10;43.18;100819.16;4754471;30;20428;-72
2022/03/31 10:01:46;;;;;;;27.70;11.77;;;;;;;40.03;43.62;100816.13;4769001;30;20509;-72
2022/03/31 10:04:13;;;;;;;25.17;11.67;;;;;;;39.81;43.48;100830.66;4769108;30;21019;-73
2022/03/31 10:06:42;;;;;;;23.47;9.30;;;;;;;39.79;43.46;100824.75;4769157;30;20523;-71
2022/03/31 10:09:10;;;;;;;26.87;11.73;;;;;;;39.98;43.53;100817.06;4769016;30;20924;-71
2022/03/31 10:11:41;;;;;;;18.90;9.50;;;;;;;39.71;43.71;100829.06;4768947;30;20434;-70
2022/03/31 10:14:17;;;;;;;31.10;12.43;;;;;;;39.72;43.61;100827.16;4769275;30;20424;-72
2022/03/31 10:17:08;;;;;;;29.20;12.00;;;;;;;39.94;43.17;100816.09;4768998;30;20442;-70
2022/03/31 10:19:40;;;;;;;31.60;14.40;;;;;;;39.58;43.95;100818.31;4768649;30;20877;-72
2022/03/31 10:25:02;;;;;;;33.27;14.47;;;;;;;39.77;43.69;100813.41;4770179;30;21010;-70
2022/03/31 10:27:31;;;;;;;39.23;14.30;;;;;;;39.73;43.94;100815.19;4768516;30;20433;-70
2022/03/31 10:30:16;;;;;;;31.70;13.57;;;;;;;39.61;43.65;100813.09;4768758;30;20435;-70
2022/03/31 10:33:03;;;;;;;25.43;10.90;;;;;;;39.63;43.61;100810.06;4768390;30;20514;-72
2022/03/31 10:35:34;;;;;;;44.80;11.90;;;;;;;39.60;43.55;100799.81;4768608;30;20499;-72
2022/03/31 10:38:15;;;;;;;25.50;12.17;;;;;;;39.62;43.89;100800.31;4768493;30;20487;-70
2022/03/31 10:40:44;;;;;;;19.63;12.20;;;;;;;39.69;44.07;100801.44;4768716;30;20455;-72
2022/03/31 10:43:24;;;;;;;38.53;12.10;;;;;;;39.70;43.88;100797.59;4768427;30;20487;-70
2022/03/31 10:45:54;;;;;;;33.87;11.50;;;;;;;39.71;43.85;100798.38;4768420;30;20529;-70
2022/03/31 10:48:23;;;;;;;32.00;11.87;;;;;;;39.81;44.11;100783.69;4768478;30;20443;-72
2022/03/31 10:51:00;;;;;;;28.07;13.07;;;;;;;39.66;44.03;100791.22;4768183;30;20464;-72
2022/03/31 10:53:31;;;;;;;26.70;10.37;;;;;;;39.84;44.12;100780.31;4768287;30;20467;-72
2022/03/31 10:55:58;;;;;;;30.40;10.57;;;;;;;39.56;44.23;100782.56;4769539;30;20439;-72
2022/03/31 10:58:26;;;;;;;24.57;12.37;;;;;;;39.49;44.61;100791.19;4767985;30;20464;-72
2022/03/31 11:01:02;;;;;;;25.33;15.10;;;;;;;39.70;44.17;100788.66;4769471;30;20459;-72
2022/03/31 11:03:28;;;;;;;23.97;11.90;;;;;;;39.77;44.07;100780.81;4767552;30;20591;-72
2022/03/31 11:06:00;;;;;;;29.87;11.97;;;;;;;39.89;43.76;100772.81;4767711;30;20436;-70
2022/03/31 11:08:26;;;;;;;25.03;12.83;;;;;;;40.02;43.54;100771.03;4767837;30;20448;-72
2022/03/31 11:10:54;;;;;;;33.63;13.00;;;;;;;39.92;43.33;100776.81;4769263;30;20952;-72
2022/03/31 11:13:31;;;;;;;30.40;11.57;;;;;;;40.13;43.26;100774.25;4767866;30;20554;-72
2022/03/31 11:15:57;;;;;;;18.53;10.73;;;;;;;40.02;42.70;100771.03;4777092;30;20837;-70
2022/03/31 11:18:23;;;;;;;35.67;11.60;;;;;;;40.15;42.10;100780.16;4764415;30;20471;-71